Wayside, MS (38780)

1:27 PM CDT on September 18, 2014 (GMT -0500)
Mid Delta Regional | Change Station
CLOSE
Current Station
Airport
Location: Greenville,
Elevation: 131 ft
Nearby Weather Stations

Elev 131 ft 33.48 °N, 90.99 °W | Updated 34 minutes ago

Partly Cloudy
Partly Cloudy
89 °F
Feels Like 93 °F
N
8
Wind Variable Wind from WSW

Today
High -- | Low -- °F
--% Chance of Precip.
Yesterday
High -- | Low -- °F
Precip. -- in
6:49 AM 7:06 PM
Waning Crescent, 25% visible
Pressure 29.92 in
Visibility 10.0 miles
Clouds Clear
Heat Index 93 °F
Dew Point 68 °F
Humidity 50%
Rainfall 0.00 in
Snow Depth Not available.
UV 9 out of 12
Pollen 10.10 out of 12
Air Quality Not available.
Flu Activity Not available.
METAR KGLH 181753Z AUTO 24007KT 10SM CLR 32/20 A2991 RMK AO2 SLP131 T03170200 10317 20222 58014 TSNO

More Conditions Fewer Conditions

Pressure 29.92 in
Visibility 10.0 miles
Clouds Clear
Heat Index 93 °F
Dew Point 68 °F
Humidity 50%
Rainfall 0.00 in
Snow Depth Not available.
UV 9 out of 12
Pollen 10.10 out of 12
Air Quality Not available.
Flu Activity Not available.
METAR KGLH 181753Z AUTO 24007KT 10SM CLR 32/20 A2991 RMK AO2 SLP131 T03170200 10317 20222 58014 TSNO

More Conditions Fewer Conditions

10-Day Weather Forecast

Almanac

Astronomy

Sep. 18, 2014 Rise Set
Actual Time 6:49 AM CDT 7:06 PM CDT
Civil Twilight 6:24 AM CDT 7:31 PM CDT
Nautical Twilight 5:55 AM CDT 7:59 PM CDT
Astronomical Twilight 5:26 AM CDT 8:29 PM CDT
Moon 1:53 AM CDT 3:46 PM CDT
Length of Visible Light 13h 06m
Length of Day
12h 16m
Tomorrow will be 2m 2s shorter.
Waning Crescent, 25% of the Moon is Illuminated
Today
Waning Crescent
Sep 24
New
Oct 1
First Quarter
Oct 8
Full
Oct 15
Last Quarter

Today's Extremes

State Highs State Lows

Community

WunderPhotos

Upload Photos

1,754,414 photos uploaded!

Nearby

Snow Depth

Station Depth Elevation
No new snow has been reported.

Earthquake Activity

City Distance Mag. Time & Date
No recent earthquake activity has been reported nearby.
Minimum magnitude displayed is 2.5.

Coastal Water Temperatures

Place Temperature
No Stations Reporting

Nearby Weather Stations